sensor_id;sensor_type;location;lat;lon;timestamp;P1;durP1;ratioP1;P2;durP2;ratioP2
10725;SDS011;5414;59.782;16.378;2023-03-20T00:00:57;19.93;;;11.23;;
10725;SDS011;5414;59.782;16.378;2023-03-20T00:03:23;15.00;;;9.87;;
10725;SDS011;5414;59.782;16.378;2023-03-20T00:05:50;24.63;;;11.53;;
10725;SDS011;5414;59.782;16.378;2023-03-20T00:08:16;144.07;;;19.03;;
10725;SDS011;5414;59.782;16.378;2023-03-20T00:10:44;12.93;;;9.57;;
10725;SDS011;5414;59.782;16.378;2023-03-20T00:13:15;21.30;;;10.50;;
10725;SDS011;5414;59.782;16.378;2023-03-20T00:15:44;21.30;;;10.20;;
10725;SDS011;5414;59.782;16.378;2023-03-20T00:18:14;13.13;;;9.20;;
10725;SDS011;5414;59.782;16.378;2023-03-20T00:20:43;15.17;;;10.10;;
10725;SDS011;5414;59.782;16.378;2023-03-20T00:23:09;22.73;;;10.10;;
10725;SDS011;5414;59.782;16.378;2023-03-20T00:25:35;13.67;;;9.30;;
10725;SDS011;5414;59.782;16.378;2023-03-20T00:28:03;18.97;;;9.77;;
10725;SDS011;5414;59.782;16.378;2023-03-20T00:30:36;20.97;;;9.90;;
10725;SDS011;5414;59.782;16.378;2023-03-20T00:33:02;15.53;;;9.57;;
10725;SDS011;5414;59.782;16.378;2023-03-20T00:35:29;95.73;;;14.97;;
10725;SDS011;5414;59.782;16.378;2023-03-20T00:37:56;13.00;;;9.27;;
10725;SDS011;5414;59.782;16.378;2023-03-20T00:40:24;11.93;;;8.80;;
10725;SDS011;5414;59.782;16.378;2023-03-20T00:42:54;79.63;;;13.33;;
10725;SDS011;5414;59.782;16.378;2023-03-20T00:45:21;35.40;;;11.20;;
10725;SDS011;5414;59.782;16.378;2023-03-20T00:47:48;23.37;;;10.83;;
10725;SDS011;5414;59.782;16.378;2023-03-20T00:50:26;17.20;;;11.33;;
10725;SDS011;5414;59.782;16.378;2023-03-20T00:52:53;13.57;;;9.70;;
10725;SDS011;5414;59.782;16.378;2023-03-20T00:55:21;21.40;;;11.40;;
10725;SDS011;5414;59.782;16.378;2023-03-20T00:57:51;13.73;;;9.53;;
10725;SDS011;5414;59.782;16.378;2023-03-20T01:02:44;16.93;;;11.20;;
10725;SDS011;5414;59.782;16.378;2023-03-20T01:05:10;15.47;;;10.70;;
10725;SDS011;5414;59.782;16.378;2023-03-20T01:07:37;19.30;;;10.70;;
10725;SDS011;5414;59.782;16.378;2023-03-20T01:10:03;16.00;;;11.17;;
10725;SDS011;5414;59.782;16.378;2023-03-20T01:12:29;17.10;;;11.03;;
10725;SDS011;5414;59.782;16.378;2023-03-20T01:14:56;16.83;;;10.97;;
10725;SDS011;5414;59.782;16.378;2023-03-20T01:17:23;15.00;;;10.30;;
10725;SDS011;5414;59.782;16.378;2023-03-20T01:19:50;16.13;;;10.93;;
10725;SDS011;5414;59.782;16.378;2023-03-20T01:22:16;17.37;;;10.93;;
10725;SDS011;5414;59.782;16.378;2023-03-20T01:24:42;29.73;;;12.63;;
10725;SDS011;5414;59.782;16.378;2023-03-20T01:27:13;16.50;;;11.30;;
10725;SDS011;5414;59.782;16.378;2023-03-20T01:29:39;15.67;;;10.73;;
10725;SDS011;5414;59.782;16.378;2023-03-20T01:32:13;13.33;;;10.27;;
10725;SDS011;5414;59.782;16.378;2023-03-20T01:34:39;14.27;;;10.23;;
10725;SDS011;5414;59.782;16.378;2023-03-20T01:37:08;16.73;;;10.97;;
10725;SDS011;5414;59.782;16.378;2023-03-20T01:39:36;18.23;;;10.87;;
10725;SDS011;5414;59.782;16.378;2023-03-20T01:42:02;16.53;;;10.53;;
10725;SDS011;5414;59.782;16.378;2023-03-20T01:44:30;13.53;;;9.17;;
10725;SDS011;5414;59.782;16.378;2023-03-20T01:46:57;17.00;;;10.47;;
10725;SDS011;5414;59.782;16.378;2023-03-20T01:51:51;14.93;;;9.67;;
10725;SDS011;5414;59.782;16.378;2023-03-20T01:54:18;14.73;;;10.43;;
10725;SDS011;5414;59.782;16.378;2023-03-20T01:57:08;14.93;;;10.13;;
10725;SDS011;5414;59.782;16.378;2023-03-20T01:59:34;14.60;;;9.73;;
10725;SDS011;5414;59.782;16.378;2023-03-20T02:02:01;13.60;;;9.73;;
10725;SDS011;5414;59.782;16.378;2023-03-20T02:04:35;11.70;;;9.07;;
10725;SDS011;5414;59.782;16.378;2023-03-20T02:07:02;13.63;;;9.77;;
10725;SDS011;5414;59.782;16.378;2023-03-20T02:09:28;13.30;;;9.23;;
10725;SDS011;5414;59.782;16.378;2023-03-20T02:11:54;15.80;;;9.13;;
10725;SDS011;5414;59.782;16.378;2023-03-20T02:14:21;11.53;;;9.07;;
10725;SDS011;5414;59.782;16.378;2023-03-20T02:16:47;11.07;;;8.73;;
10725;SDS011;5414;59.782;16.378;2023-03-20T02:19:19;13.23;;;9.00;;
10725;SDS011;5414;59.782;16.378;2023-03-20T02:22:01;14.00;;;9.33;;
10725;SDS011;5414;59.782;16.378;2023-03-20T02:27:19;12.77;;;8.70;;
10725;SDS011;5414;59.782;16.378;2023-03-20T02:42:33;14.23;;;9.37;;
10725;SDS011;5414;59.782;16.378;2023-03-20T02:47:39;12.33;;;8.93;;
10725;SDS011;5414;59.782;16.378;2023-03-20T02:58:11;14.70;;;9.90;;
10725;SDS011;5414;59.782;16.378;2023-03-20T03:08:07;44.43;;;12.77;;
10725;SDS011;5414;59.782;16.378;2023-03-20T03:10:35;39.50;;;11.73;;
10725;SDS011;5414;59.782;16.378;2023-03-20T03:13:03;36.00;;;11.50;;
10725;SDS011;5414;59.782;16.378;2023-03-20T03:15:33;58.73;;;13.73;;
10725;SDS011;5414;59.782;16.378;2023-03-20T03:18:00;159.07;;;19.83;;
10725;SDS011;5414;59.782;16.378;2023-03-20T03:20:37;74.07;;;15.03;;
10725;SDS011;5414;59.782;16.378;2023-03-20T03:23:04;119.70;;;16.93;;
10725;SDS011;5414;59.782;16.378;2023-03-20T03:25:35;160.43;;;20.47;;
10725;SDS011;5414;59.782;16.378;2023-03-20T03:28:03;94.10;;;16.23;;
10725;SDS011;5414;59.782;16.378;2023-03-20T03:30:31;118.00;;;17.37;;
10725;SDS011;5414;59.782;16.378;2023-03-20T03:35:36;161.63;;;20.50;;
10725;SDS011;5414;59.782;16.378;2023-03-20T03:40:40;149.40;;;18.60;;
10725;SDS011;5414;59.782;16.378;2023-03-20T03:45:38;183.80;;;20.07;;
10725;SDS011;5414;59.782;16.378;2023-03-20T03:48:17;171.90;;;20.70;;
10725;SDS011;5414;59.782;16.378;2023-03-20T03:50:44;187.53;;;20.53;;
10725;SDS011;5414;59.782;16.378;2023-03-20T03:53:13;219.20;;;23.50;;
10725;SDS011;5414;59.782;16.378;2023-03-20T03:55:42;180.23;;;21.20;;
10725;SDS011;5414;59.782;16.378;2023-03-20T03:58:10;89.37;;;16.13;;
10725;SDS011;5414;59.782;16.378;2023-03-20T04:00:40;234.40;;;23.83;;
10725;SDS011;5414;59.782;16.378;2023-03-20T04:03:06;50.50;;;13.93;;
10725;SDS011;5414;59.782;16.378;2023-03-20T04:05:33;248.50;;;25.23;;
10725;SDS011;5414;59.782;16.378;2023-03-20T04:08:00;73.67;;;14.83;;
10725;SDS011;5414;59.782;16.378;2023-03-20T04:10:27;176.30;;;20.67;;
10725;SDS011;5414;59.782;16.378;2023-03-20T04:12:53;132.67;;;17.20;;
10725;SDS011;5414;59.782;16.378;2023-03-20T04:15:19;277.57;;;26.07;;
10725;SDS011;5414;59.782;16.378;2023-03-20T04:17:45;259.90;;;26.67;;
10725;SDS011;5414;59.782;16.378;2023-03-20T04:20:12;234.70;;;25.00;;
10725;SDS011;5414;59.782;16.378;2023-03-20T04:22:38;118.73;;;18.13;;
10725;SDS011;5414;59.782;16.378;2023-03-20T04:25:05;198.80;;;21.97;;
10725;SDS011;5414;59.782;16.378;2023-03-20T04:27:32;188.80;;;23.23;;
10725;SDS011;5414;59.782;16.378;2023-03-20T04:29:58;119.73;;;18.30;;
10725;SDS011;5414;59.782;16.378;2023-03-20T04:32:24;41.73;;;14.67;;
10725;SDS011;5414;59.782;16.378;2023-03-20T04:34:50;129.83;;;18.77;;
10725;SDS011;5414;59.782;16.378;2023-03-20T04:37:16;143.37;;;19.60;;
10725;SDS011;5414;59.782;16.378;2023-03-20T04:39:42;201.13;;;23.17;;
10725;SDS011;5414;59.782;16.378;2023-03-20T04:42:08;144.50;;;18.60;;
10725;SDS011;5414;59.782;16.378;2023-03-20T04:44:34;234.87;;;23.23;;
10725;SDS011;5414;59.782;16.378;2023-03-20T04:47:01;229.57;;;22.37;;
10725;SDS011;5414;59.782;16.378;2023-03-20T04:49:27;246.20;;;24.27;;
10725;SDS011;5414;59.782;16.378;2023-03-20T04:51:53;269.60;;;26.50;;
10725;SDS011;5414;59.782;16.378;2023-03-20T04:54:20;228.23;;;22.63;;
10725;SDS011;5414;59.782;16.378;2023-03-20T04:56:46;174.80;;;19.90;;
10725;SDS011;5414;59.782;16.378;2023-03-20T04:59:12;251.57;;;24.27;;
10725;SDS011;5414;59.782;16.378;2023-03-20T05:01:38;324.43;;;27.47;;
10725;SDS011;5414;59.782;16.378;2023-03-20T05:04:04;152.37;;;19.23;;
10725;SDS011;5414;59.782;16.378;2023-03-20T05:06:31;153.17;;;19.03;;
10725;SDS011;5414;59.782;16.378;2023-03-20T05:08:57;47.90;;;11.90;;
10725;SDS011;5414;59.782;16.378;2023-03-20T05:11:24;122.80;;;16.40;;
10725;SDS011;5414;59.782;16.378;2023-03-20T05:13:51;247.07;;;22.57;;
10725;SDS011;5414;59.782;16.378;2023-03-20T05:16:17;54.43;;;12.20;;
10725;SDS011;5414;59.782;16.378;2023-03-20T05:18:43;171.27;;;18.53;;
10725;SDS011;5414;59.782;16.378;2023-03-20T05:21:09;80.27;;;12.77;;
10725;SDS011;5414;59.782;16.378;2023-03-20T05:23:35;230.67;;;22.03;;
10725;SDS011;5414;59.782;16.378;2023-03-20T05:26:01;197.83;;;20.13;;
10725;SDS011;5414;59.782;16.378;2023-03-20T05:28:27;149.07;;;18.70;;
10725;SDS011;5414;59.782;16.378;2023-03-20T05:30:53;111.60;;;15.87;;
10725;SDS011;5414;59.782;16.378;2023-03-20T05:33:20;107.33;;;16.73;;
10725;SDS011;5414;59.782;16.378;2023-03-20T05:35:46;217.43;;;21.47;;
10725;SDS011;5414;59.782;16.378;2023-03-20T05:38:12;123.77;;;18.20;;
10725;SDS011;5414;59.782;16.378;2023-03-20T05:40:38;181.47;;;20.97;;
10725;SDS011;5414;59.782;16.378;2023-03-20T05:43:05;93.13;;;16.07;;
10725;SDS011;5414;59.782;16.378;2023-03-20T05:45:32;309.90;;;30.80;;
10725;SDS011;5414;59.782;16.378;2023-03-20T05:47:57;103.97;;;18.63;;
10725;SDS011;5414;59.782;16.378;2023-03-20T05:50:24;27.83;;;14.13;;
10725;SDS011;5414;59.782;16.378;2023-03-20T05:52:50;45.13;;;16.60;;
10725;SDS011;5414;59.782;16.378;2023-03-20T05:55:16;26.13;;;15.37;;
10725;SDS011;5414;59.782;16.378;2023-03-20T05:57:42;29.95;;;15.00;;
10725;SDS011;5414;59.782;16.378;2023-03-20T06:00:08;53.80;;;16.90;;
10725;SDS011;5414;59.782;16.378;2023-03-20T06:02:35;51.00;;;17.87;;
10725;SDS011;5414;59.782;16.378;2023-03-20T06:05:01;49.23;;;16.47;;
10725;SDS011;5414;59.782;16.378;2023-03-20T06:07:27;136.27;;;21.13;;
10725;SDS011;5414;59.782;16.378;2023-03-20T06:09:53;91.47;;;18.83;;
10725;SDS011;5414;59.782;16.378;2023-03-20T06:12:20;42.67;;;15.53;;
10725;SDS011;5414;59.782;16.378;2023-03-20T06:14:46;39.13;;;15.60;;
10725;SDS011;5414;59.782;16.378;2023-03-20T06:17:12;376.43;;;33.43;;
10725;SDS011;5414;59.782;16.378;2023-03-20T06:19:38;336.47;;;30.37;;
10725;SDS011;5414;59.782;16.378;2023-03-20T06:22:04;207.73;;;25.13;;
10725;SDS011;5414;59.782;16.378;2023-03-20T06:24:31;322.97;;;30.97;;
10725;SDS011;5414;59.782;16.378;2023-03-20T06:26:57;147.83;;;21.67;;
10725;SDS011;5414;59.782;16.378;2023-03-20T06:29:23;234.60;;;26.63;;
10725;SDS011;5414;59.782;16.378;2023-03-20T06:31:49;127.50;;;20.53;;
10725;SDS011;5414;59.782;16.378;2023-03-20T06:34:15;174.37;;;25.10;;
10725;SDS011;5414;59.782;16.378;2023-03-20T06:36:42;72.33;;;18.47;;
10725;SDS011;5414;59.782;16.378;2023-03-20T06:39:08;38.23;;;17.03;;
10725;SDS011;5414;59.782;16.378;2023-03-20T06:41:34;42.03;;;17.67;;
10725;SDS011;5414;59.782;16.378;2023-03-20T06:44:00;56.83;;;19.63;;
10725;SDS011;5414;59.782;16.378;2023-03-20T06:46:26;39.53;;;18.30;;
10725;SDS011;5414;59.782;16.378;2023-03-20T06:48:52;40.03;;;17.57;;
10725;SDS011;5414;59.782;16.378;2023-03-20T06:51:18;43.47;;;17.97;;
10725;SDS011;5414;59.782;16.378;2023-03-20T06:53:44;41.93;;;18.80;;
10725;SDS011;5414;59.782;16.378;2023-03-20T06:56:10;55.40;;;20.50;;
10725;SDS011;5414;59.782;16.378;2023-03-20T06:58:37;42.23;;;18.80;;
10725;SDS011;5414;59.782;16.378;2023-03-20T07:01:21;45.00;;;19.47;;
10725;SDS011;5414;59.782;16.378;2023-03-20T07:03:47;52.90;;;20.70;;
10725;SDS011;5414;59.782;16.378;2023-03-20T07:06:14;42.20;;;19.13;;
10725;SDS011;5414;59.782;16.378;2023-03-20T07:08:42;51.17;;;21.33;;
10725;SDS011;5414;59.782;16.378;2023-03-20T07:11:08;54.63;;;22.13;;
10725;SDS011;5414;59.782;16.378;2023-03-20T07:13:34;53.37;;;21.30;;
10725;SDS011;5414;59.782;16.378;2023-03-20T07:16:00;47.40;;;20.40;;
10725;SDS011;5414;59.782;16.378;2023-03-20T07:18:27;54.03;;;20.13;;
10725;SDS011;5414;59.782;16.378;2023-03-20T07:20:53;46.30;;;20.60;;
10725;SDS011;5414;59.782;16.378;2023-03-20T07:23:22;44.93;;;19.60;;
10725;SDS011;5414;59.782;16.378;2023-03-20T07:25:49;46.50;;;19.93;;
10725;SDS011;5414;59.782;16.378;2023-03-20T07:28:15;40.90;;;19.70;;
10725;SDS011;5414;59.782;16.378;2023-03-20T07:30:42;41.50;;;19.33;;
10725;SDS011;5414;59.782;16.378;2023-03-20T07:33:08;45.97;;;20.30;;
10725;SDS011;5414;59.782;16.378;2023-03-20T07:35:34;46.70;;;21.03;;
10725;SDS011;5414;59.782;16.378;2023-03-20T07:38:00;38.20;;;18.77;;
10725;SDS011;5414;59.782;16.378;2023-03-20T07:40:26;44.73;;;20.20;;
10725;SDS011;5414;59.782;16.378;2023-03-20T07:42:52;39.47;;;18.23;;
10725;SDS011;5414;59.782;16.378;2023-03-20T07:45:18;36.47;;;18.57;;
10725;SDS011;5414;59.782;16.378;2023-03-20T07:47:44;35.10;;;19.00;;
10725;SDS011;5414;59.782;16.378;2023-03-20T07:50:12;38.23;;;18.13;;
10725;SDS011;5414;59.782;16.378;2023-03-20T07:52:38;33.53;;;17.87;;
10725;SDS011;5414;59.782;16.378;2023-03-20T07:55:05;35.17;;;17.10;;
10725;SDS011;5414;59.782;16.378;2023-03-20T07:57:31;34.07;;;18.47;;
10725;SDS011;5414;59.782;16.378;2023-03-20T07:59:58;32.23;;;17.23;;
10725;SDS011;5414;59.782;16.378;2023-03-20T08:02:24;34.23;;;17.23;;
10725;SDS011;5414;59.782;16.378;2023-03-20T08:04:50;27.13;;;15.50;;
10725;SDS011;5414;59.782;16.378;2023-03-20T08:07:16;31.87;;;16.83;;
10725;SDS011;5414;59.782;16.378;2023-03-20T08:09:42;32.90;;;17.07;;
10725;SDS011;5414;59.782;16.378;2023-03-20T08:12:08;30.90;;;16.53;;
10725;SDS011;5414;59.782;16.378;2023-03-20T08:14:34;28.30;;;15.60;;
10725;SDS011;5414;59.782;16.378;2023-03-20T08:17:02;26.10;;;15.27;;
10725;SDS011;5414;59.782;16.378;2023-03-20T08:19:28;27.63;;;15.33;;
10725;SDS011;5414;59.782;16.378;2023-03-20T08:21:55;29.53;;;15.50;;
10725;SDS011;5414;59.782;16.378;2023-03-20T08:24:21;25.53;;;14.77;;
10725;SDS011;5414;59.782;16.378;2023-03-20T08:26:47;25.27;;;14.67;;
10725;SDS011;5414;59.782;16.378;2023-03-20T08:29:13;24.93;;;14.73;;
10725;SDS011;5414;59.782;16.378;2023-03-20T08:31:41;24.80;;;14.63;;
10725;SDS011;5414;59.782;16.378;2023-03-20T08:34:07;22.93;;;13.57;;
10725;SDS011;5414;59.782;16.378;2023-03-20T08:36:33;20.13;;;12.50;;
10725;SDS011;5414;59.782;16.378;2023-03-20T08:38:59;21.30;;;12.33;;
10725;SDS011;5414;59.782;16.378;2023-03-20T08:41:25;20.93;;;13.07;;
10725;SDS011;5414;59.782;16.378;2023-03-20T08:43:51;20.23;;;12.97;;
10725;SDS011;5414;59.782;16.378;2023-03-20T08:46:17;19.10;;;11.60;;
10725;SDS011;5414;59.782;16.378;2023-03-20T08:48:43;20.03;;;11.60;;
10725;SDS011;5414;59.782;16.378;2023-03-20T08:51:09;18.70;;;11.30;;
10725;SDS011;5414;59.782;16.378;2023-03-20T08:53:35;19.37;;;11.50;;
10725;SDS011;5414;59.782;16.378;2023-03-20T08:56:02;17.30;;;10.90;;
10725;SDS011;5414;59.782;16.378;2023-03-20T08:58:28;16.87;;;11.03;;
10725;SDS011;5414;59.782;16.378;2023-03-20T09:00:54;18.33;;;10.60;;
10725;SDS011;5414;59.782;16.378;2023-03-20T09:03:20;17.57;;;10.77;;
10725;SDS011;5414;59.782;16.378;2023-03-20T09:05:47;15.40;;;10.13;;
10725;SDS011;5414;59.782;16.378;2023-03-20T09:08:13;14.20;;;9.87;;
10725;SDS011;5414;59.782;16.378;2023-03-20T09:10:40;18.10;;;10.83;;
10725;SDS011;5414;59.782;16.378;2023-03-20T09:13:06;15.80;;;10.20;;
10725;SDS011;5414;59.782;16.378;2023-03-20T09:15:33;16.33;;;10.27;;
10725;SDS011;5414;59.782;16.378;2023-03-20T09:17:59;16.33;;;10.33;;
10725;SDS011;5414;59.782;16.378;2023-03-20T09:20:25;16.27;;;10.70;;
10725;SDS011;5414;59.782;16.378;2023-03-20T09:22:51;15.60;;;9.80;;
10725;SDS011;5414;59.782;16.378;2023-03-20T09:25:17;16.30;;;9.90;;
10725;SDS011;5414;59.782;16.378;2023-03-20T09:27:43;15.90;;;9.60;;
10725;SDS011;5414;59.782;16.378;2023-03-20T09:30:10;15.40;;;10.10;;
10725;SDS011;5414;59.782;16.378;2023-03-20T09:32:37;14.63;;;9.70;;
10725;SDS011;5414;59.782;16.378;2023-03-20T09:35:03;13.67;;;8.80;;
10725;SDS011;5414;59.782;16.378;2023-03-20T09:37:29;11.73;;;7.83;;
10725;SDS011;5414;59.782;16.378;2023-03-20T09:39:55;9.37;;;7.57;;
10725;SDS011;5414;59.782;16.378;2023-03-20T09:45:00;8.17;;;6.33;;
10725;SDS011;5414;59.782;16.378;2023-03-20T09:47:35;9.27;;;6.23;;
10725;SDS011;5414;59.782;16.378;2023-03-20T09:55:24;4.40;;;3.77;;
10725;SDS011;5414;59.782;16.378;2023-03-20T09:57:55;3.67;;;3.20;;
10725;SDS011;5414;59.782;16.378;2023-03-20T10:00:26;3.63;;;2.77;;
10725;SDS011;5414;59.782;16.378;2023-03-20T10:05:33;2.23;;;1.80;;
10725;SDS011;5414;59.782;16.378;2023-03-20T10:08:00;1.70;;;1.60;;
10725;SDS011;5414;59.782;16.378;2023-03-20T10:13:07;1.30;;;1.20;;
10725;SDS011;5414;59.782;16.378;2023-03-20T10:15:44;1.27;;;1.17;;
10725;SDS011;5414;59.782;16.378;2023-03-20T10:20:49;1.10;;;1.00;;
10725;SDS011;5414;59.782;16.378;2023-03-20T10:23:24;1.27;;;1.10;;
10725;SDS011;5414;59.782;16.378;2023-03-20T10:25:55;0.80;;;0.80;;
10725;SDS011;5414;59.782;16.378;2023-03-20T10:28:57;1.00;;;0.80;;
10725;SDS011;5414;59.782;16.378;2023-03-20T10:39:13;0.80;;;0.80;;
10725;SDS011;5414;59.782;16.378;2023-03-20T10:41:43;0.50;;;0.50;;
10725;SDS011;5414;59.782;16.378;2023-03-20T10:44:15;1.77;;;0.83;;
10725;SDS011;5414;59.782;16.378;2023-03-20T10:46:42;0.90;;;0.90;;
10725;SDS011;5414;59.782;16.378;2023-03-20T10:49:12;0.50;;;0.50;;
10725;SDS011;5414;59.782;16.378;2023-03-20T10:51:40;0.40;;;0.40;;
10725;SDS011;5414;59.782;16.378;2023-03-20T10:54:17;0.30;;;0.30;;
10725;SDS011;5414;59.782;16.378;2023-03-20T10:56:46;0.43;;;0.30;;
10725;SDS011;5414;59.782;16.378;2023-03-20T11:01:51;0.20;;;0.20;;
10725;SDS011;5414;59.782;16.378;2023-03-20T11:04:17;0.20;;;0.20;;
10725;SDS011;5414;59.782;16.378;2023-03-20T11:06:46;0.20;;;0.20;;
10725;SDS011;5414;59.782;16.378;2023-03-20T11:09:20;0.20;;;0.20;;
10725;SDS011;5414;59.782;16.378;2023-03-20T11:11:46;0.20;;;0.20;;
10725;SDS011;5414;59.782;16.378;2023-03-20T11:14:20;0.20;;;0.20;;
10725;SDS011;5414;59.782;16.378;2023-03-20T11:16:53;0.20;;;0.20;;
10725;SDS011;5414;59.782;16.378;2023-03-20T11:19:20;0.20;;;0.20;;
10725;SDS011;5414;59.782;16.378;2023-03-20T11:21:48;0.20;;;0.20;;
10725;SDS011;5414;59.782;16.378;2023-03-20T11:26:53;0.30;;;0.30;;
10725;SDS011;5414;59.782;16.378;2023-03-20T11:29:22;0.40;;;0.40;;
10725;SDS011;5414;59.782;16.378;2023-03-20T11:31:50;0.40;;;0.40;;
10725;SDS011;5414;59.782;16.378;2023-03-20T11:36:59;0.27;;;0.27;;
10725;SDS011;5414;59.782;16.378;2023-03-20T11:39:26;0.33;;;0.33;;
10725;SDS011;5414;59.782;16.378;2023-03-20T11:41:54;0.30;;;0.30;;
10725;SDS011;5414;59.782;16.378;2023-03-20T11:46:59;0.30;;;0.30;;
10725;SDS011;5414;59.782;16.378;2023-03-20T11:49:29;0.30;;;0.30;;
10725;SDS011;5414;59.782;16.378;2023-03-20T11:51:58;0.63;;;0.30;;
10725;SDS011;5414;59.782;16.378;2023-03-20T11:54:25;0.40;;;0.40;;
10725;SDS011;5414;59.782;16.378;2023-03-20T11:59:18;0.50;;;0.40;;
10725;SDS011;5414;59.782;16.378;2023-03-20T12:01:45;0.40;;;0.40;;
10725;SDS011;5414;59.782;16.378;2023-03-20T12:04:14;0.30;;;0.30;;
10725;SDS011;5414;59.782;16.378;2023-03-20T12:11:57;0.30;;;0.30;;
10725;SDS011;5414;59.782;16.378;2023-03-20T12:14:30;0.30;;;0.30;;
10725;SDS011;5414;59.782;16.378;2023-03-20T12:17:03;0.20;;;0.20;;
10725;SDS011;5414;59.782;16.378;2023-03-20T12:19:30;0.30;;;0.30;;
10725;SDS011;5414;59.782;16.378;2023-03-20T12:22:01;0.30;;;0.30;;
10725;SDS011;5414;59.782;16.378;2023-03-20T12:24:37;0.37;;;0.30;;
10725;SDS011;5414;59.782;16.378;2023-03-20T12:27:28;0.30;;;0.30;;
10725;SDS011;5414;59.782;16.378;2023-03-20T12:30:09;0.20;;;0.20;;
10725;SDS011;5414;59.782;16.378;2023-03-20T12:32:43;0.37;;;0.37;;
10725;SDS011;5414;59.782;16.378;2023-03-20T12:37:37;0.30;;;0.30;;
10725;SDS011;5414;59.782;16.378;2023-03-20T12:40:03;0.30;;;0.30;;
10725;SDS011;5414;59.782;16.378;2023-03-20T12:42:38;0.30;;;0.30;;
10725;SDS011;5414;59.782;16.378;2023-03-20T12:45:14;0.30;;;0.30;;
10725;SDS011;5414;59.782;16.378;2023-03-20T13:03:28;0.30;;;0.30;;
10725;SDS011;5414;59.782;16.378;2023-03-20T13:13:34;0.20;;;0.20;;
10725;SDS011;5414;59.782;16.378;2023-03-20T13:16:05;0.23;;;0.23;;
10725;SDS011;5414;59.782;16.378;2023-03-20T13:21:07;0.20;;;0.20;;
10725;SDS011;5414;59.782;16.378;2023-03-20T13:23:38;0.50;;;0.30;;
10725;SDS011;5414;59.782;16.378;2023-03-20T13:29:23;0.60;;;0.60;;
10725;SDS011;5414;59.782;16.378;2023-03-20T13:41:39;0.30;;;0.30;;
10725;SDS011;5414;59.782;16.378;2023-03-20T13:44:05;0.30;;;0.30;;
10725;SDS011;5414;59.782;16.378;2023-03-20T13:46:40;0.40;;;0.40;;
10725;SDS011;5414;59.782;16.378;2023-03-20T13:49:51;0.30;;;0.30;;
10725;SDS011;5414;59.782;16.378;2023-03-20T13:51:59;0.70;;;0.30;;
10725;SDS011;5414;59.782;16.378;2023-03-20T14:04:39;0.30;;;0.30;;
10725;SDS011;5414;59.782;16.378;2023-03-20T14:09:52;0.50;;;0.50;;
10725;SDS011;5414;59.782;16.378;2023-03-20T14:12:19;1.30;;;0.80;;
10725;SDS011;5414;59.782;16.378;2023-03-20T14:14:49;0.40;;;0.40;;
10725;SDS011;5414;59.782;16.378;2023-03-20T14:17:26;0.40;;;0.40;;
10725;SDS011;5414;59.782;16.378;2023-03-20T14:19:53;0.40;;;0.40;;
10725;SDS011;5414;59.782;16.378;2023-03-20T14:22:21;0.50;;;0.50;;
10725;SDS011;5414;59.782;16.378;2023-03-20T14:24:53;0.60;;;0.60;;
10725;SDS011;5414;59.782;16.378;2023-03-20T14:27:20;0.70;;;0.63;;
10725;SDS011;5414;59.782;16.378;2023-03-20T14:29:46;0.50;;;0.50;;
10725;SDS011;5414;59.782;16.378;2023-03-20T14:37:34;0.40;;;0.40;;
10725;SDS011;5414;59.782;16.378;2023-03-20T14:40:09;0.67;;;0.50;;
10725;SDS011;5414;59.782;16.378;2023-03-20T14:42:50;1.77;;;0.77;;
10725;SDS011;5414;59.782;16.378;2023-03-20T14:52:44;0.80;;;0.70;;
10725;SDS011;5414;59.782;16.378;2023-03-20T14:57:40;1.27;;;0.83;;
10725;SDS011;5414;59.782;16.378;2023-03-20T15:00:27;2.10;;;1.00;;
10725;SDS011;5414;59.782;16.378;2023-03-20T15:03:36;0.70;;;0.50;;
10725;SDS011;5414;59.782;16.378;2023-03-20T15:05:43;1.27;;;0.60;;
10725;SDS011;5414;59.782;16.378;2023-03-20T15:08:12;0.60;;;0.60;;
10725;SDS011;5414;59.782;16.378;2023-03-20T15:10:46;0.60;;;0.60;;
10725;SDS011;5414;59.782;16.378;2023-03-20T15:13:13;0.63;;;0.60;;
10725;SDS011;5414;59.782;16.378;2023-03-20T15:15:50;0.83;;;0.60;;
10725;SDS011;5414;59.782;16.378;2023-03-20T15:18:18;1.17;;;0.80;;
10725;SDS011;5414;59.782;16.378;2023-03-20T15:20:45;0.60;;;0.60;;
10725;SDS011;5414;59.782;16.378;2023-03-20T15:23:11;1.20;;;0.60;;
10725;SDS011;5414;59.782;16.378;2023-03-20T15:25:38;0.63;;;0.60;;
10725;SDS011;5414;59.782;16.378;2023-03-20T15:28:05;0.77;;;0.70;;
10725;SDS011;5414;59.782;16.378;2023-03-20T15:30:32;0.60;;;0.60;;
10725;SDS011;5414;59.782;16.378;2023-03-20T15:32:59;0.60;;;0.60;;
10725;SDS011;5414;59.782;16.378;2023-03-20T15:35:25;1.13;;;0.70;;
10725;SDS011;5414;59.782;16.378;2023-03-20T15:37:51;1.47;;;0.70;;
10725;SDS011;5414;59.782;16.378;2023-03-20T15:40:22;1.03;;;0.80;;
10725;SDS011;5414;59.782;16.378;2023-03-20T15:42:52;0.70;;;0.70;;
10725;SDS011;5414;59.782;16.378;2023-03-20T15:45:24;1.10;;;1.00;;
10725;SDS011;5414;59.782;16.378;2023-03-20T15:47:51;0.90;;;0.60;;
10725;SDS011;5414;59.782;16.378;2023-03-20T15:50:23;0.70;;;0.70;;
10725;SDS011;5414;59.782;16.378;2023-03-20T15:52:49;1.27;;;0.80;;
10725;SDS011;5414;59.782;16.378;2023-03-20T15:55:19;0.70;;;0.60;;
10725;SDS011;5414;59.782;16.378;2023-03-20T15:57:45;0.70;;;0.70;;
10725;SDS011;5414;59.782;16.378;2023-03-20T16:00:25;0.87;;;0.70;;
10725;SDS011;5414;59.782;16.378;2023-03-20T16:02:51;1.37;;;0.70;;
10725;SDS011;5414;59.782;16.378;2023-03-20T16:05:18;1.00;;;0.90;;
10725;SDS011;5414;59.782;16.378;2023-03-20T16:07:45;1.67;;;0.80;;
10725;SDS011;5414;59.782;16.378;2023-03-20T16:10:18;1.00;;;0.70;;
10725;SDS011;5414;59.782;16.378;2023-03-20T16:12:47;0.90;;;0.60;;
10725;SDS011;5414;59.782;16.378;2023-03-20T16:15:15;1.13;;;0.70;;
10725;SDS011;5414;59.782;16.378;2023-03-20T16:17:41;0.80;;;0.70;;
10725;SDS011;5414;59.782;16.378;2023-03-20T16:20:12;0.77;;;0.60;;
10725;SDS011;5414;59.782;16.378;2023-03-20T16:22:38;0.60;;;0.40;;
10725;SDS011;5414;59.782;16.378;2023-03-20T16:25:08;0.70;;;0.50;;
10725;SDS011;5414;59.782;16.378;2023-03-20T16:27:37;0.50;;;0.47;;
10725;SDS011;5414;59.782;16.378;2023-03-20T16:30:06;0.83;;;0.47;;
10725;SDS011;5414;59.782;16.378;2023-03-20T16:35:00;0.70;;;0.40;;
10725;SDS011;5414;59.782;16.378;2023-03-20T16:37:31;0.57;;;0.50;;
10725;SDS011;5414;59.782;16.378;2023-03-20T16:42:43;1.77;;;0.50;;
10725;SDS011;5414;59.782;16.378;2023-03-20T16:45:14;0.30;;;0.30;;
10725;SDS011;5414;59.782;16.378;2023-03-20T16:47:41;0.50;;;0.30;;
10725;SDS011;5414;59.782;16.378;2023-03-20T16:52:47;2.10;;;0.40;;
10725;SDS011;5414;59.782;16.378;2023-03-20T16:55:14;0.67;;;0.60;;
10725;SDS011;5414;59.782;16.378;2023-03-20T16:57:43;0.63;;;0.40;;
10725;SDS011;5414;59.782;16.378;2023-03-20T17:02:57;0.30;;;0.30;;
10725;SDS011;5414;59.782;16.378;2023-03-20T17:05:23;0.50;;;0.40;;
10725;SDS011;5414;59.782;16.378;2023-03-20T17:08:02;0.77;;;0.50;;
10725;SDS011;5414;59.782;16.378;2023-03-20T17:10:30;1.83;;;0.50;;
10725;SDS011;5414;59.782;16.378;2023-03-20T17:12:56;0.40;;;0.40;;
10725;SDS011;5414;59.782;16.378;2023-03-20T17:15:23;0.90;;;0.67;;
10725;SDS011;5414;59.782;16.378;2023-03-20T17:17:49;1.57;;;0.60;;
10725;SDS011;5414;59.782;16.378;2023-03-20T17:20:22;0.50;;;0.50;;
10725;SDS011;5414;59.782;16.378;2023-03-20T17:22:49;0.40;;;0.40;;
10725;SDS011;5414;59.782;16.378;2023-03-20T17:25:15;0.37;;;0.30;;